sensor_id;sensor_type;location;lat;lon;timestamp;temperature;humidity
46730;DHT22;32476;50.002;11.854;2023-08-20T00:00:55;20.70;99.90
46730;DHT22;32476;50.002;11.854;2023-08-20T00:03:23;20.70;99.90
46730;DHT22;32476;50.002;11.854;2023-08-20T00:05:49;20.60;99.90
46730;DHT22;32476;50.002;11.854;2023-08-20T00:08:16;20.50;99.90
46730;DHT22;32476;50.002;11.854;2023-08-20T00:10:43;20.40;99.90
46730;DHT22;32476;50.002;11.854;2023-08-20T00:13:09;20.30;99.90
46730;DHT22;32476;50.002;11.854;2023-08-20T00:15:35;20.30;99.90
46730;DHT22;32476;50.002;11.854;2023-08-20T00:18:03;20.20;99.90
46730;DHT22;32476;50.002;11.854;2023-08-20T00:20:30;20.20;99.90
46730;DHT22;32476;50.002;11.854;2023-08-20T00:22:56;20.30;99.90
46730;DHT22;32476;50.002;11.854;2023-08-20T00:25:24;20.30;99.90
46730;DHT22;32476;50.002;11.854;2023-08-20T00:27:50;20.40;99.90
46730;DHT22;32476;50.002;11.854;2023-08-20T00:30:16;20.50;99.90
46730;DHT22;32476;50.002;11.854;2023-08-20T00:32:44;20.50;99.90
46730;DHT22;32476;50.002;11.854;2023-08-20T00:35:10;20.60;99.90
46730;DHT22;32476;50.002;11.854;2023-08-20T00:37:35;20.60;99.90
46730;DHT22;32476;50.002;11.854;2023-08-20T00:40:03;20.70;99.90
46730;DHT22;32476;50.002;11.854;2023-08-20T00:42:30;20.70;99.90
46730;DHT22;32476;50.002;11.854;2023-08-20T00:44:56;20.80;99.90
46730;DHT22;32476;50.002;11.854;2023-08-20T00:47:24;20.80;99.90
46730;DHT22;32476;50.002;11.854;2023-08-20T00:49:50;20.80;99.90
46730;DHT22;32476;50.002;11.854;2023-08-20T00:52:17;20.80;99.90
46730;DHT22;32476;50.002;11.854;2023-08-20T00:54:45;20.80;99.90
46730;DHT22;32476;50.002;11.854;2023-08-20T00:57:18;20.70;99.90
46730;DHT22;32476;50.002;11.854;2023-08-20T00:59:50;20.70;99.90
46730;DHT22;32476;50.002;11.854;2023-08-20T01:02:18;20.60;99.90
46730;DHT22;32476;50.002;11.854;2023-08-20T01:04:45;20.60;99.90
46730;DHT22;32476;50.002;11.854;2023-08-20T01:12:51;20.60;99.90
46730;DHT22;32476;50.002;11.854;2023-08-20T01:15:17;20.60;99.90
46730;DHT22;32476;50.002;11.854;2023-08-20T01:17:43;20.60;99.90
46730;DHT22;32476;50.002;11.854;2023-08-20T01:20:13;20.60;99.90
46730;DHT22;32476;50.002;11.854;2023-08-20T01:30:56;20.70;99.90
46730;DHT22;32476;50.002;11.854;2023-08-20T01:33:24;20.70;99.90
46730;DHT22;32476;50.002;11.854;2023-08-20T01:35:54;20.70;99.90
46730;DHT22;32476;50.002;11.854;2023-08-20T01:38:21;20.70;99.90
46730;DHT22;32476;50.002;11.854;2023-08-20T01:40:49;20.60;99.90
46730;DHT22;32476;50.002;11.854;2023-08-20T01:43:15;20.60;99.90
46730;DHT22;32476;50.002;11.854;2023-08-20T01:45:42;20.60;99.90
46730;DHT22;32476;50.002;11.854;2023-08-20T01:48:09;20.60;99.90
46730;DHT22;32476;50.002;11.854;2023-08-20T01:50:36;20.60;99.90
46730;DHT22;32476;50.002;11.854;2023-08-20T01:53:02;20.60;99.90
46730;DHT22;32476;50.002;11.854;2023-08-20T01:55:30;20.60;99.90
46730;DHT22;32476;50.002;11.854;2023-08-20T01:57:56;20.50;99.90
46730;DHT22;32476;50.002;11.854;2023-08-20T02:00:22;20.50;99.90
46730;DHT22;32476;50.002;11.854;2023-08-20T02:03:03;20.50;99.90
46730;DHT22;32476;50.002;11.854;2023-08-20T02:05:29;20.50;99.90
46730;DHT22;32476;50.002;11.854;2023-08-20T02:07:57;20.50;99.90
46730;DHT22;32476;50.002;11.854;2023-08-20T02:10:23;20.50;99.90
46730;DHT22;32476;50.002;11.854;2023-08-20T02:12:49;20.50;99.90
46730;DHT22;32476;50.002;11.854;2023-08-20T02:15:16;20.50;99.90
46730;DHT22;32476;50.002;11.854;2023-08-20T02:17:42;20.60;99.90
46730;DHT22;32476;50.002;11.854;2023-08-20T02:20:08;20.50;99.90
46730;DHT22;32476;50.002;11.854;2023-08-20T02:22:37;20.60;99.90
46730;DHT22;32476;50.002;11.854;2023-08-20T02:25:03;20.60;99.90
46730;DHT22;32476;50.002;11.854;2023-08-20T02:27:29;20.60;99.90
46730;DHT22;32476;50.002;11.854;2023-08-20T02:29:56;20.60;99.90
46730;DHT22;32476;50.002;11.854;2023-08-20T02:32:22;20.60;99.90
46730;DHT22;32476;50.002;11.854;2023-08-20T02:34:50;20.50;99.90
46730;DHT22;32476;50.002;11.854;2023-08-20T02:37:18;20.50;99.90
46730;DHT22;32476;50.002;11.854;2023-08-20T02:39:44;20.50;99.90
46730;DHT22;32476;50.002;11.854;2023-08-20T02:42:10;20.40;99.90
46730;DHT22;32476;50.002;11.854;2023-08-20T02:44:37;20.30;99.90
46730;DHT22;32476;50.002;11.854;2023-08-20T02:47:03;20.30;99.90
46730;DHT22;32476;50.002;11.854;2023-08-20T02:49:29;20.30;99.90
46730;DHT22;32476;50.002;11.854;2023-08-20T02:51:56;20.30;99.90
46730;DHT22;32476;50.002;11.854;2023-08-20T02:54:22;20.30;99.90
46730;DHT22;32476;50.002;11.854;2023-08-20T02:56:48;20.30;99.90
46730;DHT22;32476;50.002;11.854;2023-08-20T02:59:16;20.30;99.90
46730;DHT22;32476;50.002;11.854;2023-08-20T03:01:42;20.20;99.90
46730;DHT22;32476;50.002;11.854;2023-08-20T03:04:08;20.10;99.90
46730;DHT22;32476;50.002;11.854;2023-08-20T03:06:35;20.10;99.90
46730;DHT22;32476;50.002;11.854;2023-08-20T03:09:01;20.10;99.90
46730;DHT22;32476;50.002;11.854;2023-08-20T03:11:29;20.10;99.90
46730;DHT22;32476;50.002;11.854;2023-08-20T03:13:57;20.10;99.90
46730;DHT22;32476;50.002;11.854;2023-08-20T03:16:22;20.10;99.90
46730;DHT22;32476;50.002;11.854;2023-08-20T03:18:48;20.10;99.90
46730;DHT22;32476;50.002;11.854;2023-08-20T03:21:16;20.00;99.90
46730;DHT22;32476;50.002;11.854;2023-08-20T03:23:42;19.90;99.90
46730;DHT22;32476;50.002;11.854;2023-08-20T03:26:08;19.90;99.90
46730;DHT22;32476;50.002;11.854;2023-08-20T03:28:35;19.90;99.90
46730;DHT22;32476;50.002;11.854;2023-08-20T03:31:01;19.80;99.90
46730;DHT22;32476;50.002;11.854;2023-08-20T03:33:27;19.80;99.90
46730;DHT22;32476;50.002;11.854;2023-08-20T03:35:55;19.70;99.90
46730;DHT22;32476;50.002;11.854;2023-08-20T03:38:21;19.70;99.90
46730;DHT22;32476;50.002;11.854;2023-08-20T03:40:47;19.60;99.90
46730;DHT22;32476;50.002;11.854;2023-08-20T03:43:15;19.40;99.90
46730;DHT22;32476;50.002;11.854;2023-08-20T03:45:41;19.50;99.90
46730;DHT22;32476;50.002;11.854;2023-08-20T03:48:07;19.50;99.90
46730;DHT22;32476;50.002;11.854;2023-08-20T03:50:35;19.50;99.90
46730;DHT22;32476;50.002;11.854;2023-08-20T03:53:00;19.50;99.90
46730;DHT22;32476;50.002;11.854;2023-08-20T03:55:27;19.60;99.90
46730;DHT22;32476;50.002;11.854;2023-08-20T03:57:54;19.50;99.90
46730;DHT22;32476;50.002;11.854;2023-08-20T04:00:20;19.50;99.90
46730;DHT22;32476;50.002;11.854;2023-08-20T04:02:47;19.50;99.90
46730;DHT22;32476;50.002;11.854;2023-08-20T04:05:14;19.50;99.90
46730;DHT22;32476;50.002;11.854;2023-08-20T04:07:40;19.40;99.90
46730;DHT22;32476;50.002;11.854;2023-08-20T04:10:08;19.40;99.90
46730;DHT22;32476;50.002;11.854;2023-08-20T04:12:36;19.30;99.90
46730;DHT22;32476;50.002;11.854;2023-08-20T04:15:02;19.20;99.90
46730;DHT22;32476;50.002;11.854;2023-08-20T04:17:28;19.20;99.90
46730;DHT22;32476;50.002;11.854;2023-08-20T04:19:55;19.20;99.90
46730;DHT22;32476;50.002;11.854;2023-08-20T04:22:21;19.10;99.90
46730;DHT22;32476;50.002;11.854;2023-08-20T04:24:47;19.10;99.90
46730;DHT22;32476;50.002;11.854;2023-08-20T04:27:14;19.00;99.90
46730;DHT22;32476;50.002;11.854;2023-08-20T04:29:40;18.90;99.90
46730;DHT22;32476;50.002;11.854;2023-08-20T04:32:06;18.90;99.90
46730;DHT22;32476;50.002;11.854;2023-08-20T04:34:34;18.80;99.90
46730;DHT22;32476;50.002;11.854;2023-08-20T04:36:59;18.80;99.90
46730;DHT22;32476;50.002;11.854;2023-08-20T04:39:25;18.70;99.90
46730;DHT22;32476;50.002;11.854;2023-08-20T04:41:53;18.70;99.90
46730;DHT22;32476;50.002;11.854;2023-08-20T04:44:19;18.70;99.90
46730;DHT22;32476;50.002;11.854;2023-08-20T04:46:45;18.70;99.90
46730;DHT22;32476;50.002;11.854;2023-08-20T04:49:12;18.80;99.90
46730;DHT22;32476;50.002;11.854;2023-08-20T04:51:38;18.80;99.90
46730;DHT22;32476;50.002;11.854;2023-08-20T04:54:04;18.80;99.90
46730;DHT22;32476;50.002;11.854;2023-08-20T04:56:32;18.70;99.90
46730;DHT22;32476;50.002;11.854;2023-08-20T04:58:58;18.70;99.90
46730;DHT22;32476;50.002;11.854;2023-08-20T05:01:23;18.60;99.90
46730;DHT22;32476;50.002;11.854;2023-08-20T05:03:51;18.70;99.90
46730;DHT22;32476;50.002;11.854;2023-08-20T05:06:17;18.70;99.90
46730;DHT22;32476;50.002;11.854;2023-08-20T05:08:43;18.70;99.90
46730;DHT22;32476;50.002;11.854;2023-08-20T05:11:10;18.60;99.90
46730;DHT22;32476;50.002;11.854;2023-08-20T05:13:36;18.60;99.90
46730;DHT22;32476;50.002;11.854;2023-08-20T05:16:02;18.60;99.90
46730;DHT22;32476;50.002;11.854;2023-08-20T05:18:29;18.70;99.90
46730;DHT22;32476;50.002;11.854;2023-08-20T05:20:55;18.70;99.90
46730;DHT22;32476;50.002;11.854;2023-08-20T05:23:21;18.80;99.90
46730;DHT22;32476;50.002;11.854;2023-08-20T05:25:49;18.80;99.90
46730;DHT22;32476;50.002;11.854;2023-08-20T05:28:15;18.90;99.90
46730;DHT22;32476;50.002;11.854;2023-08-20T05:30:41;19.00;99.90
46730;DHT22;32476;50.002;11.854;2023-08-20T05:33:08;19.00;99.90
46730;DHT22;32476;50.002;11.854;2023-08-20T05:35:34;19.10;99.90
46730;DHT22;32476;50.002;11.854;2023-08-20T05:38:01;19.10;99.90
46730;DHT22;32476;50.002;11.854;2023-08-20T05:40:29;19.20;99.90
46730;DHT22;32476;50.002;11.854;2023-08-20T05:42:54;19.20;99.90
46730;DHT22;32476;50.002;11.854;2023-08-20T05:45:20;19.20;99.90
46730;DHT22;32476;50.002;11.854;2023-08-20T05:47:48;19.30;99.90
46730;DHT22;32476;50.002;11.854;2023-08-20T05:50:14;19.30;99.90
46730;DHT22;32476;50.002;11.854;2023-08-20T05:52:39;19.40;99.90
46730;DHT22;32476;50.002;11.854;2023-08-20T05:55:07;19.50;99.90
46730;DHT22;32476;50.002;11.854;2023-08-20T05:57:35;19.60;99.90
46730;DHT22;32476;50.002;11.854;2023-08-20T06:00:03;19.70;99.90
46730;DHT22;32476;50.002;11.854;2023-08-20T06:02:31;19.80;99.90
46730;DHT22;32476;50.002;11.854;2023-08-20T06:04:57;20.00;99.90
46730;DHT22;32476;50.002;11.854;2023-08-20T06:07:23;20.10;99.90
46730;DHT22;32476;50.002;11.854;2023-08-20T06:09:51;20.10;99.90
46730;DHT22;32476;50.002;11.854;2023-08-20T06:12:17;20.10;99.90
46730;DHT22;32476;50.002;11.854;2023-08-20T06:14:43;20.20;99.90
46730;DHT22;32476;50.002;11.854;2023-08-20T06:17:10;20.30;99.90
46730;DHT22;32476;50.002;11.854;2023-08-20T06:19:36;20.40;99.90
46730;DHT22;32476;50.002;11.854;2023-08-20T06:22:02;20.40;99.90
46730;DHT22;32476;50.002;11.854;2023-08-20T06:24:30;20.50;99.90
46730;DHT22;32476;50.002;11.854;2023-08-20T06:26:56;20.70;99.90
46730;DHT22;32476;50.002;11.854;2023-08-20T06:29:22;20.80;99.90
46730;DHT22;32476;50.002;11.854;2023-08-20T06:31:49;20.90;99.90
46730;DHT22;32476;50.002;11.854;2023-08-20T06:34:16;21.10;99.90
46730;DHT22;32476;50.002;11.854;2023-08-20T06:36:42;21.30;99.90
46730;DHT22;32476;50.002;11.854;2023-08-20T06:39:10;21.60;99.90
46730;DHT22;32476;50.002;11.854;2023-08-20T06:41:36;21.90;99.90
46730;DHT22;32476;50.002;11.854;2023-08-20T06:44:03;22.20;99.90
46730;DHT22;32476;50.002;11.854;2023-08-20T06:46:30;22.40;99.90
46730;DHT22;32476;50.002;11.854;2023-08-20T06:48:56;22.60;99.90
46730;DHT22;32476;50.002;11.854;2023-08-20T06:51:22;22.70;99.90
46730;DHT22;32476;50.002;11.854;2023-08-20T06:53:50;22.80;99.90
46730;DHT22;32476;50.002;11.854;2023-08-20T06:56:16;23.10;99.90
46730;DHT22;32476;50.002;11.854;2023-08-20T06:58:42;23.20;99.90
46730;DHT22;32476;50.002;11.854;2023-08-20T07:01:09;23.40;99.90
46730;DHT22;32476;50.002;11.854;2023-08-20T07:03:41;23.60;99.90
46730;DHT22;32476;50.002;11.854;2023-08-20T07:06:10;23.90;99.90
46730;DHT22;32476;50.002;11.854;2023-08-20T07:08:39;24.20;99.90
46730;DHT22;32476;50.002;11.854;2023-08-20T07:11:06;24.50;99.90
46730;DHT22;32476;50.002;11.854;2023-08-20T07:13:34;24.70;99.90
46730;DHT22;32476;50.002;11.854;2023-08-20T07:16:00;25.00;99.90
46730;DHT22;32476;50.002;11.854;2023-08-20T07:18:26;25.10;99.90
46730;DHT22;32476;50.002;11.854;2023-08-20T07:20:54;25.30;99.90
46730;DHT22;32476;50.002;11.854;2023-08-20T07:23:20;25.30;99.90
46730;DHT22;32476;50.002;11.854;2023-08-20T07:25:46;25.70;99.90
46730;DHT22;32476;50.002;11.854;2023-08-20T07:28:15;25.90;99.90
46730;DHT22;32476;50.002;11.854;2023-08-20T07:30:46;26.00;99.90
46730;DHT22;32476;50.002;11.854;2023-08-20T07:33:13;26.20;99.90
46730;DHT22;32476;50.002;11.854;2023-08-20T07:35:40;26.00;99.90
46730;DHT22;32476;50.002;11.854;2023-08-20T07:38:06;26.00;99.90
46730;DHT22;32476;50.002;11.854;2023-08-20T07:40:32;26.50;99.90
46730;DHT22;32476;50.002;11.854;2023-08-20T07:42:59;26.30;99.90
46730;DHT22;32476;50.002;11.854;2023-08-20T07:45:25;26.60;99.90
46730;DHT22;32476;50.002;11.854;2023-08-20T07:47:51;26.80;99.90
46730;DHT22;32476;50.002;11.854;2023-08-20T07:50:19;27.20;99.90
46730;DHT22;32476;50.002;11.854;2023-08-20T07:52:45;27.30;99.90
46730;DHT22;32476;50.002;11.854;2023-08-20T07:55:11;27.60;99.90
46730;DHT22;32476;50.002;11.854;2023-08-20T07:57:38;27.90;99.90
46730;DHT22;32476;50.002;11.854;2023-08-20T08:00:05;27.90;99.90
46730;DHT22;32476;50.002;11.854;2023-08-20T08:02:32;27.90;99.90
46730;DHT22;32476;50.002;11.854;2023-08-20T08:04:59;27.90;99.90
46730;DHT22;32476;50.002;11.854;2023-08-20T08:07:26;27.90;99.90
46730;DHT22;32476;50.002;11.854;2023-08-20T08:09:51;27.90;99.90
46730;DHT22;32476;50.002;11.854;2023-08-20T08:12:19;28.00;99.90
46730;DHT22;32476;50.002;11.854;2023-08-20T08:14:45;28.10;99.90
46730;DHT22;32476;50.002;11.854;2023-08-20T08:17:11;28.20;99.90
46730;DHT22;32476;50.002;11.854;2023-08-20T08:19:38;28.50;99.90
46730;DHT22;32476;50.002;11.854;2023-08-20T08:22:04;28.70;99.90
46730;DHT22;32476;50.002;11.854;2023-08-20T08:24:30;28.80;99.90
46730;DHT22;32476;50.002;11.854;2023-08-20T08:26:57;28.80;99.90
46730;DHT22;32476;50.002;11.854;2023-08-20T08:29:23;29.20;99.90
46730;DHT22;32476;50.002;11.854;2023-08-20T08:31:49;29.30;99.90
46730;DHT22;32476;50.002;11.854;2023-08-20T08:34:16;29.50;99.90
46730;DHT22;32476;50.002;11.854;2023-08-20T08:36:43;29.60;99.90
46730;DHT22;32476;50.002;11.854;2023-08-20T08:39:10;29.90;99.90
46730;DHT22;32476;50.002;11.854;2023-08-20T08:41:38;30.10;99.90
46730;DHT22;32476;50.002;11.854;2023-08-20T08:44:07;30.10;99.90
46730;DHT22;32476;50.002;11.854;2023-08-20T08:46:35;29.90;99.90
46730;DHT22;32476;50.002;11.854;2023-08-20T08:49:04;29.90;99.90
46730;DHT22;32476;50.002;11.854;2023-08-20T08:51:30;30.10;99.90
46730;DHT22;32476;50.002;11.854;2023-08-20T08:53:57;30.40;99.90
46730;DHT22;32476;50.002;11.854;2023-08-20T08:56:24;30.60;99.90
46730;DHT22;32476;50.002;11.854;2023-08-20T08:58:50;30.40;99.90
46730;DHT22;32476;50.002;11.854;2023-08-20T09:01:16;30.40;99.90
46730;DHT22;32476;50.002;11.854;2023-08-20T09:03:44;30.70;99.90
46730;DHT22;32476;50.002;11.854;2023-08-20T09:06:10;30.90;99.90
46730;DHT22;32476;50.002;11.854;2023-08-20T09:08:36;30.70;99.10
46730;DHT22;32476;50.002;11.854;2023-08-20T09:11:04;30.70;99.90
46730;DHT22;32476;50.002;11.854;2023-08-20T09:13:35;30.70;98.30
46730;DHT22;32476;50.002;11.854;2023-08-20T09:16:09;30.80;98.70
46730;DHT22;32476;50.002;11.854;2023-08-20T09:18:40;30.80;98.10
46730;DHT22;32476;50.002;11.854;2023-08-20T09:21:13;31.00;97.10
46730;DHT22;32476;50.002;11.854;2023-08-20T09:23:39;31.00;96.20
46730;DHT22;32476;50.002;11.854;2023-08-20T09:26:07;30.90;94.90
46730;DHT22;32476;50.002;11.854;2023-08-20T09:28:45;30.90;94.00
46730;DHT22;32476;50.002;11.854;2023-08-20T09:31:12;31.00;93.30
46730;DHT22;32476;50.002;11.854;2023-08-20T09:33:54;30.70;92.60
46730;DHT22;32476;50.002;11.854;2023-08-20T09:36:34;31.10;93.50
46730;DHT22;32476;50.002;11.854;2023-08-20T09:39:02;31.60;94.20
46730;DHT22;32476;50.002;11.854;2023-08-20T09:41:29;31.70;92.00
46730;DHT22;32476;50.002;11.854;2023-08-20T09:43:58;31.30;92.30
46730;DHT22;32476;50.002;11.854;2023-08-20T09:46:27;31.70;92.50
46730;DHT22;32476;50.002;11.854;2023-08-20T09:48:57;32.10;93.80
46730;DHT22;32476;50.002;11.854;2023-08-20T09:51:27;32.30;91.20
46730;DHT22;32476;50.002;11.854;2023-08-20T09:53:57;32.40;90.30
46730;DHT22;32476;50.002;11.854;2023-08-20T09:56:30;32.30;87.60
46730;DHT22;32476;50.002;11.854;2023-08-20T09:58:58;31.90;88.60
46730;DHT22;32476;50.002;11.854;2023-08-20T10:01:25;31.70;87.70
46730;DHT22;32476;50.002;11.854;2023-08-20T10:03:52;31.90;90.20
46730;DHT22;32476;50.002;11.854;2023-08-20T10:06:20;32.10;90.20
46730;DHT22;32476;50.002;11.854;2023-08-20T10:08:47;31.70;86.40
46730;DHT22;32476;50.002;11.854;2023-08-20T10:11:15;31.20;87.40
46730;DHT22;32476;50.002;11.854;2023-08-20T10:13:43;31.30;90.00
46730;DHT22;32476;50.002;11.854;2023-08-20T10:16:12;31.20;87.40
46730;DHT22;32476;50.002;11.854;2023-08-20T10:18:39;31.20;86.40
46730;DHT22;32476;50.002;11.854;2023-08-20T10:21:07;31.10;87.00
46730;DHT22;32476;50.002;11.854;2023-08-20T10:23:40;31.60;87.70
46730;DHT22;32476;50.002;11.854;2023-08-20T10:26:11;32.20;87.30
46730;DHT22;32476;50.002;11.854;2023-08-20T10:28:37;32.30;87.70
46730;DHT22;32476;50.002;11.854;2023-08-20T10:31:15;32.30;82.70
46730;DHT22;32476;50.002;11.854;2023-08-20T10:36:17;32.40;84.60
46730;DHT22;32476;50.002;11.854;2023-08-20T10:38:50;32.70;82.90
46730;DHT22;32476;50.002;11.854;2023-08-20T10:41:16;33.20;86.00
46730;DHT22;32476;50.002;11.854;2023-08-20T10:43:52;33.20;81.10
46730;DHT22;32476;50.002;11.854;2023-08-20T10:46:23;32.80;82.80
46730;DHT22;32476;50.002;11.854;2023-08-20T10:48:58;32.70;80.60
46730;DHT22;32476;50.002;11.854;2023-08-20T10:51:39;32.50;83.10
46730;DHT22;32476;50.002;11.854;2023-08-20T10:54:08;32.40;79.90
46730;DHT22;32476;50.002;11.854;2023-08-20T10:56:48;32.90;82.80
46730;DHT22;32476;50.002;11.854;2023-08-20T10:59:25;32.70;81.20
46730;DHT22;32476;50.002;11.854;2023-08-20T11:01:56;32.90;85.20
46730;DHT22;32476;50.002;11.854;2023-08-20T11:04:31;33.10;84.00
46730;DHT22;32476;50.002;11.854;2023-08-20T11:07:02;33.00;79.60
46730;DHT22;32476;50.002;11.854;2023-08-20T11:09:30;33.40;82.60
46730;DHT22;32476;50.002;11.854;2023-08-20T11:11:56;33.70;78.70
46730;DHT22;32476;50.002;11.854;2023-08-20T11:14:25;33.90;78.70
46730;DHT22;32476;50.002;11.854;2023-08-20T11:16:51;33.70;77.20
46730;DHT22;32476;50.002;11.854;2023-08-20T11:19:22;33.80;76.80
46730;DHT22;32476;50.002;11.854;2023-08-20T11:21:50;33.20;75.60
46730;DHT22;32476;50.002;11.854;2023-08-20T11:24:17;33.00;77.50
46730;DHT22;32476;50.002;11.854;2023-08-20T11:26:45;33.00;78.20
46730;DHT22;32476;50.002;11.854;2023-08-20T11:29:13;32.50;77.80
46730;DHT22;32476;50.002;11.854;2023-08-20T11:31:47;32.00;78.40
46730;DHT22;32476;50.002;11.854;2023-08-20T11:34:16;31.70;79.80
46730;DHT22;32476;50.002;11.854;2023-08-20T11:36:44;31.90;80.20
46730;DHT22;32476;50.002;11.854;2023-08-20T11:39:10;31.90;81.40
46730;DHT22;32476;50.002;11.854;2023-08-20T11:41:38;31.80;82.30
46730;DHT22;32476;50.002;11.854;2023-08-20T11:44:05;32.20;82.20
46730;DHT22;32476;50.002;11.854;2023-08-20T11:46:42;32.30;85.80
46730;DHT22;32476;50.002;11.854;2023-08-20T11:49:12;32.20;80.10
46730;DHT22;32476;50.002;11.854;2023-08-20T11:51:47;31.90;79.70
46730;DHT22;32476;50.002;11.854;2023-08-20T11:54:18;31.90;79.00
46730;DHT22;32476;50.002;11.854;2023-08-20T11:56:48;32.10;79.90
46730;DHT22;32476;50.002;11.854;2023-08-20T11:59:20;32.20;79.50
46730;DHT22;32476;50.002;11.854;2023-08-20T12:01:57;32.40;78.80
46730;DHT22;32476;50.002;11.854;2023-08-20T12:04:29;32.70;79.70
46730;DHT22;32476;50.002;11.854;2023-08-20T12:07:09;32.90;82.00
46730;DHT22;32476;50.002;11.854;2023-08-20T12:09:40;32.60;76.90
46730;DHT22;32476;50.002;11.854;2023-08-20T12:12:08;32.30;79.40
46730;DHT22;32476;50.002;11.854;2023-08-20T12:14:35;32.70;79.50
46730;DHT22;32476;50.002;11.854;2023-08-20T12:17:03;33.40;78.70
46730;DHT22;32476;50.002;11.854;2023-08-20T12:19:29;32.90;78.80
46730;DHT22;32476;50.002;11.854;2023-08-20T12:21:55;32.50;80.60
46730;DHT22;32476;50.002;11.854;2023-08-20T12:24:22;32.10;81.40
46730;DHT22;32476;50.002;11.854;2023-08-20T12:26:48;31.60;80.70
46730;DHT22;32476;50.002;11.854;2023-08-20T12:29:14;31.10;81.00
46730;DHT22;32476;50.002;11.854;2023-08-20T12:31:41;30.70;82.70
46730;DHT22;32476;50.002;11.854;2023-08-20T12:34:07;30.40;83.80
46730;DHT22;32476;50.002;11.854;2023-08-20T12:36:34;30.90;84.90
46730;DHT22;32476;50.002;11.854;2023-08-20T12:39:02;31.60;86.40
46730;DHT22;32476;50.002;11.854;2023-08-20T12:41:30;32.00;81.80
46730;DHT22;32476;50.002;11.854;2023-08-20T12:43:56;32.40;81.30
46730;DHT22;32476;50.002;11.854;2023-08-20T12:46:24;32.70;83.60
46730;DHT22;32476;50.002;11.854;2023-08-20T12:48:50;32.50;84.80
46730;DHT22;32476;50.002;11.854;2023-08-20T12:51:16;32.50;83.10
46730;DHT22;32476;50.002;11.854;2023-08-20T12:53:44;32.40;81.10
46730;DHT22;32476;50.002;11.854;2023-08-20T12:56:10;32.10;80.60
46730;DHT22;32476;50.002;11.854;2023-08-20T12:58:37;32.50;80.00
46730;DHT22;32476;50.002;11.854;2023-08-20T13:01:05;32.40;81.70
46730;DHT22;32476;50.002;11.854;2023-08-20T13:03:31;31.90;82.50
46730;DHT22;32476;50.002;11.854;2023-08-20T13:05:58;31.90;84.90
46730;DHT22;32476;50.002;11.854;2023-08-20T13:08:33;31.90;84.20
46730;DHT22;32476;50.002;11.854;2023-08-20T13:11:00;31.90;85.10
46730;DHT22;32476;50.002;11.854;2023-08-20T13:13:27;31.60;85.90
46730;DHT22;32476;50.002;11.854;2023-08-20T13:15:55;31.60;86.00
46730;DHT22;32476;50.002;11.854;2023-08-20T13:18:22;31.80;85.70
46730;DHT22;32476;50.002;11.854;2023-08-20T13:20:54;32.20;86.20
46730;DHT22;32476;50.002;11.854;2023-08-20T13:23:22;32.30;84.50
46730;DHT22;32476;50.002;11.854;2023-08-20T13:25:49;32.40;80.60
46730;DHT22;32476;50.002;11.854;2023-08-20T13:28:15;32.40;80.10
46730;DHT22;32476;50.002;11.854;2023-08-20T13:30:42;32.70;81.40
46730;DHT22;32476;50.002;11.854;2023-08-20T13:33:08;32.90;77.90
46730;DHT22;32476;50.002;11.854;2023-08-20T13:35:34;33.00;80.10
46730;DHT22;32476;50.002;11.854;2023-08-20T13:38:02;33.10;80.10
46730;DHT22;32476;50.002;11.854;2023-08-20T13:40:30;33.10;83.70
46730;DHT22;32476;50.002;11.854;2023-08-20T13:42:56;32.50;78.40
46730;DHT22;32476;50.002;11.854;2023-08-20T13:45:23;32.60;80.90
46730;DHT22;32476;50.002;11.854;2023-08-20T13:47:49;32.70;82.20
46730;DHT22;32476;50.002;11.854;2023-08-20T13:50:15;32.50;81.60
46730;DHT22;32476;50.002;11.854;2023-08-20T13:52:43;32.70;78.90
46730;DHT22;32476;50.002;11.854;2023-08-20T13:55:09;33.00;77.20
46730;DHT22;32476;50.002;11.854;2023-08-20T13:57:35;32.70;79.10
46730;DHT22;32476;50.002;11.854;2023-08-20T14:00:03;32.80;80.60
46730;DHT22;32476;50.002;11.854;2023-08-20T14:02:35;32.50;80.70
46730;DHT22;32476;50.002;11.854;2023-08-20T14:05:03;32.40;79.00
46730;DHT22;32476;50.002;11.854;2023-08-20T14:07:32;32.90;85.70
46730;DHT22;32476;50.002;11.854;2023-08-20T14:10:00;32.70;80.50
46730;DHT22;32476;50.002;11.854;2023-08-20T14:12:34;32.50;81.00
46730;DHT22;32476;50.002;11.854;2023-08-20T14:15:00;32.60;82.80
46730;DHT22;32476;50.002;11.854;2023-08-20T14:17:27;32.50;81.60
46730;DHT22;32476;50.002;11.854;2023-08-20T14:19:55;32.10;82.90
46730;DHT22;32476;50.002;11.854;2023-08-20T14:22:21;32.10;81.20
46730;DHT22;32476;50.002;11.854;2023-08-20T14:24:47;32.50;82.50
46730;DHT22;32476;50.002;11.854;2023-08-20T14:27:15;32.70;79.70
46730;DHT22;32476;50.002;11.854;2023-08-20T14:29:41;32.80;84.40
46730;DHT22;32476;50.002;11.854;2023-08-20T14:32:07;33.20;81.60
46730;DHT22;32476;50.002;11.854;2023-08-20T14:34:35;33.50;82.50
46730;DHT22;32476;50.002;11.854;2023-08-20T14:37:01;33.40;79.70
46730;DHT22;32476;50.002;11.854;2023-08-20T14:39:27;33.50;79.90
46730;DHT22;32476;50.002;11.854;2023-08-20T14:41:54;33.90;82.60
46730;DHT22;32476;50.002;11.854;2023-08-20T14:44:20;33.50;79.50
46730;DHT22;32476;50.002;11.854;2023-08-20T14:46:46;33.00;79.40
46730;DHT22;32476;50.002;11.854;2023-08-20T14:49:15;32.30;82.30
46730;DHT22;32476;50.002;11.854;2023-08-20T14:51:41;32.50;82.50
46730;DHT22;32476;50.002;11.854;2023-08-20T14:54:07;32.60;83.60
46730;DHT22;32476;50.002;11.854;2023-08-20T14:56:35;33.00;83.20
46730;DHT22;32476;50.002;11.854;2023-08-20T14:59:01;32.80;81.70
46730;DHT22;32476;50.002;11.854;2023-08-20T15:01:26;32.90;80.50
46730;DHT22;32476;50.002;11.854;2023-08-20T15:03:54;32.70;79.30
46730;DHT22;32476;50.002;11.854;2023-08-20T15:06:20;32.90;80.60
46730;DHT22;32476;50.002;11.854;2023-08-20T15:08:48;32.20;78.30
46730;DHT22;32476;50.002;11.854;2023-08-20T15:11:15;31.50;79.80
46730;DHT22;32476;50.002;11.854;2023-08-20T15:13:41;31.00;80.50
46730;DHT22;32476;50.002;11.854;2023-08-20T15:16:07;31.00;83.70
46730;DHT22;32476;50.002;11.854;2023-08-20T15:18:34;31.40;84.00
46730;DHT22;32476;50.002;11.854;2023-08-20T15:21:00;31.60;81.30
46730;DHT22;32476;50.002;11.854;2023-08-20T15:23:28;32.00;87.90
46730;DHT22;32476;50.002;11.854;2023-08-20T15:25:55;32.10;80.80
46730;DHT22;32476;50.002;11.854;2023-08-20T15:28:22;32.20;81.10
46730;DHT22;32476;50.002;11.854;2023-08-20T15:30:51;32.50;85.70
46730;DHT22;32476;50.002;11.854;2023-08-20T15:33:19;32.50;83.60